createdAt,value
2023-01-23T00:03:16.081Z,18
2023-01-23T00:09:35.927Z,18
2023-01-23T00:15:59.001Z,9.2
2023-01-23T00:22:19.139Z,9.2
2023-01-23T00:28:42.045Z,11.3
2023-01-23T00:35:02.068Z,11.3
2023-01-23T00:41:25.129Z,13
2023-01-23T00:47:45.027Z,13
2023-01-23T00:54:07.955Z,7.9
2023-01-23T01:00:28.221Z,7.9
2023-01-23T01:06:51.083Z,10
2023-01-23T01:13:11.018Z,10
2023-01-23T01:19:34.213Z,12.1
2023-01-23T01:25:53.990Z,12.1
2023-01-23T01:32:16.964Z,5.4
2023-01-23T01:38:37.526Z,5.4
2023-01-23T01:44:59.925Z,11.2
2023-01-23T01:51:20.156Z,11.2
2023-01-23T01:57:43.061Z,18.1
2023-01-23T02:04:02.928Z,18.1
2023-01-23T02:10:26.008Z,7.8
2023-01-23T02:16:46.121Z,7.8
2023-01-23T02:23:09.018Z,17.1
2023-01-23T02:29:29.116Z,17.1
2023-01-23T02:35:52.074Z,19.7
2023-01-23T02:42:11.948Z,19.7
2023-01-23T02:48:34.903Z,19.1
2023-01-23T02:54:55.189Z,19.1
2023-01-23T03:01:18.125Z,13.8
2023-01-23T03:07:37.937Z,13.8
2023-01-23T03:14:01.132Z,12.2
2023-01-23T03:20:21.194Z,12.2
2023-01-23T03:26:44.031Z,12.7
2023-01-23T03:33:04.090Z,12.7
2023-01-23T03:39:26.907Z,15.2
2023-01-23T03:45:47.024Z,15.2
2023-01-23T03:52:10.044Z,19.6
2023-01-23T03:58:29.944Z,19.6
2023-01-23T04:04:52.951Z,12
2023-01-23T04:27:58.589Z,25.1
2023-01-23T04:34:17.953Z,25.1
2023-01-23T04:40:40.948Z,25.1
2023-01-23T04:47:01.100Z,25.1
2023-01-23T04:53:24.029Z,9
2023-01-23T04:59:43.912Z,9
2023-01-23T05:06:07.060Z,4.7
2023-01-23T05:12:26.912Z,4.7
2023-01-23T05:18:49.957Z,14.5
2023-01-23T05:25:10.072Z,14.5
2023-01-23T05:31:33.115Z,10.2
2023-01-23T05:37:53.090Z,10.2
2023-01-23T05:44:16.131Z,21.6
2023-01-23T05:50:36.133Z,21.6
2023-01-23T05:56:59.034Z,11.1
2023-01-23T06:03:19.148Z,11.1
2023-01-23T06:09:42.094Z,8.5
2023-01-23T06:16:01.991Z,8.5
2023-01-23T06:22:25.063Z,9.6
2023-01-23T06:28:44.948Z,9.6
2023-01-23T06:35:07.993Z,12.7
2023-01-23T06:41:28.157Z,12.7
2023-01-23T06:47:51.034Z,14.8
2023-01-23T06:54:11.103Z,14.8
2023-01-23T07:00:34.037Z,10
2023-01-23T07:06:54.162Z,10
2023-01-23T07:13:17.078Z,10.6
2023-01-23T07:19:37.089Z,10.6
2023-01-23T07:26:00.105Z,10.6
2023-01-23T07:32:20.070Z,10.6
2023-01-23T07:38:43.099Z,15.1
2023-01-23T07:45:03.116Z,15.1
2023-01-23T07:51:26.103Z,13.4
2023-01-23T07:57:45.975Z,13.4
2023-01-23T08:04:09.099Z,8.1
2023-01-23T08:10:28.916Z,8.1
2023-01-23T08:16:52.089Z,4
2023-01-23T08:23:12.019Z,4
2023-01-23T08:29:34.939Z,4.8
2023-01-23T08:35:55.045Z,4.8
2023-01-23T08:42:17.935Z,7.5
2023-01-23T08:48:38.051Z,7.5
2023-01-23T08:55:00.993Z,11.6
2023-01-23T09:01:20.961Z,11.6
2023-01-23T09:07:43.943Z,9.6
2023-01-23T09:32:28.012Z,10.9
2023-01-23T09:38:47.912Z,10.9
2023-01-23T09:45:11.007Z,9.3
2023-01-23T09:51:31.119Z,9.3
2023-01-23T09:57:54.019Z,6.4
2023-01-23T10:04:14.048Z,6.4
2023-01-23T10:10:37.079Z,11.6
2023-01-23T10:16:57.118Z,11.6
2023-01-23T10:23:19.990Z,10.6
2023-01-23T10:29:40.081Z,10.6
2023-01-23T10:36:03.043Z,9.3
2023-01-23T10:42:22.962Z,9.3
2023-01-23T10:48:46.051Z,3.7
2023-01-23T10:55:05.914Z,3.7
2023-01-23T11:01:29.095Z,2.9
2023-01-23T11:07:49.145Z,2.9
2023-01-23T11:14:11.978Z,7.5
2023-01-23T11:20:32.133Z,7.5
2023-01-23T11:26:55.296Z,2.2
2023-01-23T11:33:14.982Z,2.2
2023-01-23T11:39:38.070Z,2.4
2023-01-23T11:45:58.378Z,2.4
2023-01-23T11:52:21.352Z,4.2
2023-01-23T11:58:49.288Z,4.2
2023-01-23T12:05:04.152Z,2.6
2023-01-23T12:11:23.943Z,2.6
2023-01-23T12:17:46.960Z,3.1
2023-01-23T12:24:07.158Z,3.1
2023-01-23T12:30:30.030Z,2.7
2023-01-23T12:37:07.146Z,2.7
2023-01-23T12:43:13.240Z,2.7
2023-01-23T12:49:32.988Z,2.7
2023-01-23T12:55:55.977Z,2.9
2023-01-23T13:02:16.193Z,2.9
2023-01-23T13:08:56.085Z,1.4
2023-01-23T13:15:12.653Z,1.4
2023-01-23T13:21:22.075Z,2.9
2023-01-23T13:27:41.926Z,2.9
2023-01-23T13:34:15.223Z,2.5
2023-01-23T13:40:25.091Z,2.5
2023-01-23T13:46:47.910Z,13.9
2023-01-23T13:53:07.919Z,13.9
2023-01-23T13:59:31.015Z,3.1
2023-01-23T14:05:51.069Z,3.1
2023-01-23T14:12:14.077Z,5.7
2023-01-23T14:18:34.072Z,5.7
2023-01-23T14:35:27.973Z,3.6
2023-01-23T14:41:47.947Z,3.6
2023-01-23T14:48:10.912Z,7
2023-01-23T14:54:33.118Z,7
2023-01-23T15:00:53.971Z,3.9
2023-01-23T15:07:14.045Z,3.9
2023-01-23T15:13:37.110Z,6.2
2023-01-23T15:19:56.930Z,6.2
2023-01-23T15:26:19.927Z,6.1
2023-01-23T15:32:40.439Z,6.1
2023-01-23T15:39:03.383Z,5.9
2023-01-23T15:45:23.451Z,5.9
2023-01-23T15:51:46.316Z,5.7
2023-01-23T15:58:05.991Z,5.7
2023-01-23T16:04:28.935Z,4.2
2023-01-23T16:10:49.161Z,4.2
2023-01-23T16:17:16.925Z,4.7
2023-01-23T16:23:42.501Z,4.7
2023-01-23T16:29:55.045Z,7
2023-01-23T16:36:15.005Z,7
2023-01-23T16:42:38.208Z,12.4
2023-01-23T16:48:58.428Z,12.4
2023-01-23T16:55:21.345Z,5.9
2023-01-23T17:01:41.033Z,5.9
2023-01-23T17:08:04.225Z,3.3
2023-01-23T17:14:24.072Z,3.3
2023-01-23T17:20:47.010Z,3.5
2023-01-23T17:27:07.171Z,3.5
2023-01-23T17:33:29.930Z,7
2023-01-23T17:39:50.077Z,7
2023-01-23T17:46:13.097Z,9
2023-01-23T17:52:32.895Z,9
2023-01-23T17:58:55.993Z,7.8
2023-01-23T18:05:16.041Z,7.8
2023-01-23T18:11:38.987Z,3.8
2023-01-23T18:17:58.903Z,3.8
2023-01-23T18:24:22.071Z,5.1
2023-01-23T18:30:42.088Z,5.1
2023-01-23T18:37:05.024Z,7
2023-01-23T18:43:25.129Z,7
2023-01-23T18:49:48.117Z,17.3
2023-01-23T18:56:08.081Z,17.3
2023-01-23T19:02:31.144Z,12
2023-01-23T19:08:50.898Z,12
2023-01-23T19:15:14.031Z,4.4
2023-01-23T19:38:55.547Z,16.2
2023-01-23T19:45:14.913Z,16.2
2023-01-23T19:51:38.071Z,16.2
2023-01-23T19:57:58.209Z,16.2
2023-01-23T20:04:20.977Z,8.3
2023-01-23T20:10:41.106Z,8.3
2023-01-23T20:17:04.189Z,9.1
2023-01-23T20:23:24.013Z,9.1
2023-01-23T20:29:47.003Z,7.7
2023-01-23T20:36:07.112Z,7.7
2023-01-23T20:42:30.047Z,7.6
2023-01-23T20:48:50.016Z,7.6
2023-01-23T20:55:13.059Z,4.6
2023-01-23T21:01:32.987Z,4.6
2023-01-23T21:07:55.981Z,5.2
2023-01-23T21:14:16.162Z,5.2
2023-01-23T21:20:40.052Z,8.2
2023-01-23T21:26:58.942Z,8.2
2023-01-23T21:33:22.072Z,16.5
2023-01-23T21:39:42.038Z,16.5
2023-01-23T21:46:05.032Z,7.7
2023-01-23T21:52:25.123Z,7.7
2023-01-23T21:58:47.990Z,6.7
2023-01-23T22:05:08.059Z,6.7
2023-01-23T22:11:31.126Z,12.2
2023-01-23T22:17:50.959Z,12.2
2023-01-23T22:24:13.963Z,6.1
2023-01-23T22:30:34.138Z,6.1
2023-01-23T22:36:57.064Z,6.4
2023-01-23T22:43:17.070Z,6.4
2023-01-23T22:49:40.125Z,11.9
2023-01-23T22:56:00.018Z,11.9
2023-01-23T23:21:34.064Z,15.8
2023-01-23T23:27:53.935Z,15.8
2023-01-23T23:34:16.990Z,15.8
2023-01-23T23:40:37.110Z,15.8
2023-01-23T23:46:59.930Z,5.4
2023-01-23T23:53:19.911Z,5.4
2023-01-23T23:59:43.114Z,7.6
